Time;durP1;ratioP1;P1;durP2;ratioP2;P2;SDS_P1;SDS_P2;PMS_P1;PMS_P2;Temp;Humidity;BMP_temperature;BMP_pressure;BME280_temperature;BME280_humidity;BME280_pressure;Samples;Min_cycle;Max_cycle;Signal;HPM_P1;HPM_P2
2022/06/05 00:01:35;;;;;;;4.57;3.40;;;;;;;;;;5009064;28;20114;-74
2022/06/05 00:04:18;;;;;;;3.53;3.10;;;;;;;;;;5007039;28;20499;-74
2022/06/05 00:07:03;;;;;;;6.53;3.47;;;;;;;;;;5004831;28;20025;-74
2022/06/05 00:10:01;;;;;;;3.92;3.63;;;;;;;;;;5008241;28;20026;-75
2022/06/05 00:12:36;;;;;;;5.13;3.50;;;;;;;;;;5008934;28;20481;-75
2022/06/05 00:15:01;;;;;;;4.28;3.45;;;;;;;;;;5008402;28;20025;-73
2022/06/05 00:17:27;;;;;;;3.55;3.25;;;;;;;;;;5007919;28;20384;-73
2022/06/05 00:19:53;;;;;;;3.88;3.58;;;;;;;;;;5008240;28;20026;-74
2022/06/05 00:22:19;;;;;;;3.70;3.25;;;;;;;;;;5009027;28;20072;-73
2022/06/05 00:24:45;;;;;;;4.18;3.78;;;;;;;;;;5008404;28;20026;-75
2022/06/05 00:27:31;;;;;;;4.07;3.72;;;;;;;;;;5007108;28;20036;-72
2022/06/05 00:30:17;;;;;;;3.45;3.15;;;;;;;;;;5007856;28;20040;-76
2022/06/05 00:32:48;;;;;;;3.45;3.15;;;;;;;;;;5023963;28;20132;-75
2022/06/05 00:35:16;;;;;;;4.72;4.32;;;;;;;;;;5008224;28;20480;-75
2022/06/05 00:38:01;;;;;;;4.35;3.67;;;;;;;;;;5007610;28;20704;-73
2022/06/05 00:40:54;;;;;;;3.90;3.60;;;;;;;;;;5007071;28;20335;-76
2022/06/05 00:43:23;;;;;;;3.67;3.38;;;;;;;;;;5006716;28;20029;-75
2022/06/05 00:45:48;;;;;;;3.53;3.22;;;;;;;;;;5007937;28;20030;-76
2022/06/05 00:48:14;;;;;;;4.05;3.67;;;;;;;;;;5006127;28;20562;-73
2022/06/05 00:50:41;;;;;;;3.95;3.47;;;;;;;;;;5008268;28;20033;-75
2022/06/05 00:53:09;;;;;;;4.80;3.92;;;;;;;;;;5007632;28;20018;-74
2022/06/05 00:55:38;;;;;;;3.95;3.40;;;;;;;;;;5007265;28;20113;-74
2022/06/05 00:58:04;;;;;;;4.03;3.63;;;;;;;;;;5007253;28;20546;-75
2022/06/05 01:00:33;;;;;;;4.00;3.70;;;;;;;;;;5008010;28;20053;-73
2022/06/05 01:03:01;;;;;;;3.78;3.47;;;;;;;;;;5008115;28;20026;-74
2022/06/05 01:05:28;;;;;;;4.22;3.83;;;;;;;;;;5008626;28;20369;-74
2022/06/05 01:07:54;;;;;;;3.80;3.50;;;;;;;;;;5006329;28;20025;-75
2022/06/05 01:10:22;;;;;;;3.83;3.53;;;;;;;;;;5006888;28;20707;-74
2022/06/05 01:16:09;;;;;;;4.95;3.83;;;;;;;;;;5049524;22;20088;-75
2022/06/05 01:18:49;;;;;;;3.60;3.40;;;;;;;;;;5026774;28;20029;-76
2022/06/05 01:21:35;;;;;;;4.50;3.92;;;;;;;;;;5027041;28;20034;-77
2022/06/05 01:24:11;;;;;;;4.15;3.85;;;;;;;;;;5020520;28;20034;-76
2022/06/05 01:26:42;;;;;;;4.65;4.10;;;;;;;;;;5026774;28;20084;-79
2022/06/05 01:29:21;;;;;;;4.23;3.93;;;;;;;;;;5026729;28;20029;-76
2022/06/05 01:31:58;;;;;;;4.30;3.63;;;;;;;;;;5027458;28;20247;-77
2022/06/05 01:34:26;;;;;;;4.45;4.05;;;;;;;;;;5027608;28;20033;-79
2022/06/05 01:37:23;;;;;;;3.70;3.40;;;;;;;;;;5026812;28;20036;-77
2022/06/05 01:40:09;;;;;;;4.57;4.05;;;;;;;;;;5021412;28;20028;-78
2022/06/05 01:42:43;;;;;;;4.20;3.83;;;;;;;;;;5025168;28;20571;-77
2022/06/05 01:45:19;;;;;;;4.28;3.88;;;;;;;;;;5026904;28;20175;-77
2022/06/05 01:47:50;;;;;;;4.80;4.30;;;;;;;;;;5026836;28;20021;-75
2022/06/05 01:50:30;;;;;;;4.70;4.30;;;;;;;;;;5026719;28;20041;-75
2022/06/05 01:53:19;;;;;;;4.18;3.78;;;;;;;;;;5019393;28;20028;-73
2022/06/05 01:55:57;;;;;;;6.60;4.20;;;;;;;;;;5026255;28;20039;-74
2022/06/05 01:58:29;;;;;;;5.38;3.97;;;;;;;;;;5025485;28;20036;-76
2022/06/05 02:00:59;;;;;;;4.97;4.32;;;;;;;;;;5006523;28;20410;-73
2022/06/05 02:03:32;;;;;;;5.80;4.40;;;;;;;;;;5007052;28;20041;-75
2022/06/05 02:06:02;;;;;;;4.80;4.40;;;;;;;;;;5006823;28;20034;-74
2022/06/05 02:08:33;;;;;;;5.70;5.18;;;;;;;;;;5015400;28;20030;-76
2022/06/05 02:11:22;;;;;;;5.25;4.80;;;;;;;;;;5026159;28;20026;-75
2022/06/05 02:13:49;;;;;;;5.50;4.28;;;;;;;;;;5026224;28;20033;-75
2022/06/05 02:16:15;;;;;;;4.90;4.50;;;;;;;;;;5024609;28;20510;-75
2022/06/05 02:18:41;;;;;;;5.00;4.57;;;;;;;;;;5025404;28;20053;-77
2022/06/05 02:21:07;;;;;;;5.10;4.65;;;;;;;;;;5025159;28;20513;-77
2022/06/05 02:23:35;;;;;;;4.43;4.03;;;;;;;;;;5024719;28;20021;-76
2022/06/05 02:26:03;;;;;;;4.30;3.88;;;;;;;;;;5026378;28;20028;-77
2022/06/05 02:28:28;;;;;;;4.40;4.00;;;;;;;;;;5023557;28;20041;-75
2022/06/05 02:31:00;;;;;;;4.88;4.47;;;;;;;;;;5025571;28;20464;-76
2022/06/05 02:33:32;;;;;;;5.18;4.55;;;;;;;;;;5024847;28;20079;-76
2022/06/05 02:36:18;;;;;;;4.35;4.00;;;;;;;;;;5025015;28;20561;-76
2022/06/05 02:39:02;;;;;;;5.07;4.57;;;;;;;;;;5025448;28;20360;-75
2022/06/05 02:41:43;;;;;;;4.82;4.40;;;;;;;;;;5025692;28;20104;-75
2022/06/05 02:44:29;;;;;;;4.68;4.25;;;;;;;;;;5025481;28;20032;-76
2022/06/05 02:47:19;;;;;;;8.35;4.75;;;;;;;;;;5025448;28;20057;-75
2022/06/05 02:50:04;;;;;;;5.43;4.22;;;;;;;;;;5024714;28;20025;-75
2022/06/05 02:52:31;;;;;;;4.60;4.20;;;;;;;;;;5025632;28;20072;-76
2022/06/05 02:55:05;;;;;;;5.40;4.93;;;;;;;;;;5025808;28;20052;-76
2022/06/05 02:57:31;;;;;;;5.35;4.43;;;;;;;;;;5025366;28;20116;-76
2022/06/05 02:59:57;;;;;;;4.72;4.30;;;;;;;;;;5024674;28;20026;-74
2022/06/05 03:05:06;;;;;;;5.18;4.68;;;;;;;;;;5023515;28;20508;-76
2022/06/05 03:07:31;;;;;;;5.40;4.90;;;;;;;;;;5025227;28;20079;-76
2022/06/05 03:09:57;;;;;;;4.55;4.25;;;;;;;;;;5024769;28;20024;-76
2022/06/05 03:12:22;;;;;;;5.20;4.20;;;;;;;;;;5025508;28;20029;-75
2022/06/05 03:14:48;;;;;;;5.30;4.90;;;;;;;;;;5024572;28;20738;-76
2022/06/05 03:17:14;;;;;;;4.90;4.43;;;;;;;;;;5025290;28;20074;-75
2022/06/05 03:19:40;;;;;;;5.13;4.65;;;;;;;;;;5025310;28;20103;-76
2022/06/05 03:22:05;;;;;;;4.57;4.18;;;;;;;;;;5023178;28;20608;-75
2022/06/05 03:24:30;;;;;;;5.22;4.50;;;;;;;;;;5025406;28;20021;-76
2022/06/05 03:26:56;;;;;;;5.15;4.72;;;;;;;;;;5024659;28;20031;-77
2022/06/05 03:29:21;;;;;;;6.57;5.90;;;;;;;;;;5025747;28;20498;-75
2022/06/05 03:31:46;;;;;;;5.20;4.70;;;;;;;;;;5029258;28;20118;-74
2022/06/05 03:34:12;;;;;;;4.85;4.45;;;;;;;;;;5028160;28;20240;-74
2022/06/05 03:36:37;;;;;;;4.88;4.38;;;;;;;;;;5028176;28;20057;-75
2022/06/05 03:39:03;;;;;;;5.20;4.80;;;;;;;;;;5028587;28;20017;-75
2022/06/05 03:41:28;;;;;;;5.10;4.60;;;;;;;;;;5029108;28;20029;-75
2022/06/05 03:43:53;;;;;;;4.95;4.55;;;;;;;;;;5028887;28;20475;-75
2022/06/05 03:46:19;;;;;;;5.18;4.68;;;;;;;;;;5028795;28;20033;-76
2022/06/05 03:48:44;;;;;;;5.35;4.85;;;;;;;;;;5027677;28;20027;-77
2022/06/05 03:51:16;;;;;;;5.88;5.38;;;;;;;;;;5028460;28;20034;-77
2022/06/05 03:53:42;;;;;;;5.43;5.03;;;;;;;;;;5026590;28;20130;-77
2022/06/05 03:56:17;;;;;;;5.18;4.78;;;;;;;;;;5028753;28;20025;-77
2022/06/05 03:58:42;;;;;;;5.78;5.22;;;;;;;;;;5029349;28;20028;-78
2022/06/05 04:01:09;;;;;;;7.80;5.90;;;;;;;;;;5028327;28;20035;-78
2022/06/05 04:03:36;;;;;;;5.60;5.10;;;;;;;;;;5033939;28;20025;-85
2022/06/05 04:06:04;;;;;;;6.18;5.55;;;;;;;;;;5029849;28;20575;-76
2022/06/05 04:08:30;;;;;;;5.93;5.28;;;;;;;;;;5026964;28;20044;-77
2022/06/05 04:10:55;;;;;;;6.55;5.45;;;;;;;;;;5028249;28;20021;-76
2022/06/05 04:13:20;;;;;;;5.55;5.05;;;;;;;;;;5028142;28;20533;-76
2022/06/05 04:15:46;;;;;;;5.88;5.38;;;;;;;;;;5028255;28;20029;-75
2022/06/05 04:18:11;;;;;;;6.35;5.75;;;;;;;;;;5028608;28;20018;-76
2022/06/05 04:20:38;;;;;;;6.88;5.70;;;;;;;;;;5030001;28;20036;-72
2022/06/05 04:23:04;;;;;;;6.22;5.63;;;;;;;;;;5027639;28;20029;-73
2022/06/05 04:25:29;;;;;;;6.97;6.28;;;;;;;;;;5026749;28;20043;-73
2022/06/05 04:27:56;;;;;;;7.15;6.43;;;;;;;;;;5027680;28;20099;-73
2022/06/05 04:30:21;;;;;;;8.95;7.07;;;;;;;;;;5027712;28;20032;-73
2022/06/05 04:32:47;;;;;;;7.70;6.78;;;;;;;;;;5028105;28;20550;-74
2022/06/05 04:35:12;;;;;;;8.07;7.20;;;;;;;;;;5028032;28;20032;-74
2022/06/05 04:37:38;;;;;;;8.25;7.45;;;;;;;;;;5028336;28;20067;-74
2022/06/05 04:40:04;;;;;;;8.00;7.07;;;;;;;;;;5027372;28;20029;-74
2022/06/05 04:42:30;;;;;;;8.10;7.13;;;;;;;;;;5026229;28;20103;-73
2022/06/05 04:44:56;;;;;;;8.80;8.00;;;;;;;;;;5027932;28;20457;-75
2022/06/05 04:47:21;;;;;;;8.20;7.38;;;;;;;;;;5026615;28;20028;-74
2022/06/05 04:49:47;;;;;;;8.27;7.35;;;;;;;;;;5027691;28;20048;-73
2022/06/05 04:52:12;;;;;;;8.73;6.90;;;;;;;;;;5027381;28;20109;-74
2022/06/05 04:54:37;;;;;;;12.75;8.23;;;;;;;;;;5027524;28;20033;-73
2022/06/05 04:57:03;;;;;;;12.80;8.45;;;;;;;;;;5027057;28;20112;-73
2022/06/05 04:59:29;;;;;;;8.75;6.55;;;;;;;;;;5026456;28;20036;-73
2022/06/05 05:01:54;;;;;;;8.82;7.93;;;;;;;;;;5026908;28;20018;-73
2022/06/05 05:04:19;;;;;;;9.38;8.43;;;;;;;;;;5026953;28;20036;-74
2022/06/05 05:06:45;;;;;;;9.02;8.13;;;;;;;;;;5027728;28;20412;-75
2022/06/05 05:09:11;;;;;;;13.20;10.25;;;;;;;;;;5027229;28;20040;-77
2022/06/05 05:11:36;;;;;;;10.50;9.40;;;;;;;;;;5027084;28;20022;-76
2022/06/05 05:14:02;;;;;;;12.35;10.95;;;;;;;;;;5027580;28;20029;-77
2022/06/05 05:16:29;;;;;;;15.55;11.30;;;;;;;;;;5026179;28;20124;-76
2022/06/05 05:18:55;;;;;;;14.13;10.55;;;;;;;;;;5026936;28;20032;-75
2022/06/05 05:21:22;;;;;;;13.82;10.27;;;;;;;;;;5027396;28;20029;-76
2022/06/05 05:23:48;;;;;;;12.48;11.18;;;;;;;;;;5028259;28;20041;-76
2022/06/05 05:26:20;;;;;;;13.27;11.48;;;;;;;;;;5027346;28;20029;-75
2022/06/05 05:28:46;;;;;;;13.98;11.10;;;;;;;;;;5025748;28;20068;-75
2022/06/05 05:31:17;;;;;;;11.98;10.15;;;;;;;;;;5027406;28;20049;-80
2022/06/05 05:33:43;;;;;;;11.60;9.63;;;;;;;;;;5023983;28;21086;-75
2022/06/05 05:36:11;;;;;;;11.73;10.00;;;;;;;;;;5025108;28;20052;-74
2022/06/05 05:38:37;;;;;;;14.10;11.57;;;;;;;;;;5026214;28;20029;-75
2022/06/05 05:43:46;;;;;;;10.52;9.52;;;;;;;;;;5023765;28;20053;-76
2022/06/05 05:46:13;;;;;;;12.00;10.80;;;;;;;;;;5022782;28;20486;-73
2022/06/05 05:48:38;;;;;;;11.40;9.40;;;;;;;;;;5024811;28;20266;-75
2022/06/05 05:51:09;;;;;;;11.05;9.95;;;;;;;;;;5025895;28;20037;-74
2022/06/05 05:53:35;;;;;;;10.35;9.35;;;;;;;;;;5026437;28;20025;-74
2022/06/05 05:56:10;;;;;;;9.82;8.82;;;;;;;;;;5024045;28;20475;-73
2022/06/05 05:58:36;;;;;;;11.68;9.05;;;;;;;;;;5023981;28;20076;-75
2022/06/05 06:01:05;;;;;;;9.45;8.45;;;;;;;;;;5026237;28;20053;-74
2022/06/05 06:03:31;;;;;;;8.85;7.95;;;;;;;;;;5025650;28;20095;-73
2022/06/05 06:06:00;;;;;;;8.80;8.00;;;;;;;;;;5026156;28;20021;-74
2022/06/05 06:08:26;;;;;;;10.35;9.35;;;;;;;;;;5024185;28;20044;-73
2022/06/05 06:10:52;;;;;;;10.35;8.30;;;;;;;;;;5026024;28;20435;-75
2022/06/05 06:13:17;;;;;;;10.00;8.70;;;;;;;;;;5025811;28;20029;-74
2022/06/05 06:15:43;;;;;;;8.75;7.93;;;;;;;;;;5025541;28;20545;-74
2022/06/05 06:18:08;;;;;;;9.27;8.38;;;;;;;;;;5024151;28;20033;-75
2022/06/05 06:20:33;;;;;;;8.18;7.28;;;;;;;;;;5027103;28;20111;-75
2022/06/05 06:22:59;;;;;;;8.52;7.80;;;;;;;;;;5025356;28;20380;-75
2022/06/05 06:25:24;;;;;;;9.38;8.48;;;;;;;;;;5022631;28;20040;-75
2022/06/05 06:27:49;;;;;;;8.43;7.70;;;;;;;;;;5026173;28;20633;-74
2022/06/05 06:30:14;;;;;;;8.20;7.40;;;;;;;;;;5025542;28;20507;-73
2022/06/05 06:32:40;;;;;;;9.10;8.07;;;;;;;;;;5025812;28;20029;-75
2022/06/05 06:35:05;;;;;;;8.57;7.78;;;;;;;;;;5025882;28;20021;-76
2022/06/05 06:37:31;;;;;;;9.48;8.57;;;;;;;;;;5025365;28;20837;-75
2022/06/05 06:39:56;;;;;;;8.45;7.60;;;;;;;;;;5025660;28;20498;-76
2022/06/05 06:42:21;;;;;;;8.32;7.63;;;;;;;;;;5039238;28;20075;-75
2022/06/05 06:44:47;;;;;;;8.30;7.25;;;;;;;;;;5026829;28;20423;-74
2022/06/05 06:47:12;;;;;;;9.25;8.20;;;;;;;;;;5045232;28;20553;-76
2022/06/05 06:49:37;;;;;;;9.77;8.13;;;;;;;;;;5029557;28;20036;-75
2022/06/05 06:52:03;;;;;;;9.05;8.23;;;;;;;;;;5023257;28;20135;-75
2022/06/05 06:54:29;;;;;;;10.73;8.85;;;;;;;;;;5023019;28;20056;-75
2022/06/05 06:56:54;;;;;;;11.15;8.75;;;;;;;;;;5025128;28;20029;-75
2022/06/05 06:59:20;;;;;;;9.68;8.77;;;;;;;;;;5022623;28;20088;-75
2022/06/05 07:01:46;;;;;;;11.20;10.15;;;;;;;;;;5022231;28;20033;-75
2022/06/05 07:04:11;;;;;;;10.48;9.48;;;;;;;;;;5021014;28;20454;-75
2022/06/05 07:06:36;;;;;;;10.32;9.32;;;;;;;;;;5029415;28;20032;-75
2022/06/05 07:09:02;;;;;;;10.60;9.60;;;;;;;;;;5023607;28;20128;-74
2022/06/05 07:11:27;;;;;;;10.75;9.65;;;;;;;;;;5026294;28;20025;-75
2022/06/05 07:13:53;;;;;;;9.40;8.52;;;;;;;;;;5046811;22;20033;-73
2022/06/05 07:16:19;;;;;;;9.30;8.43;;;;;;;;;;5043825;28;20367;-74
2022/06/05 07:18:45;;;;;;;9.32;8.50;;;;;;;;;;5047778;28;20046;-74
2022/06/05 07:21:20;;;;;;;9.88;8.95;;;;;;;;;;5048245;28;20482;-73
2022/06/05 07:23:46;;;;;;;11.13;9.90;;;;;;;;;;5046328;28;20459;-73
2022/06/05 07:26:13;;;;;;;9.68;8.80;;;;;;;;;;5045724;28;20071;-73
2022/06/05 07:28:39;;;;;;;10.27;9.27;;;;;;;;;;5041574;28;20613;-73
2022/06/05 07:31:05;;;;;;;11.65;10.00;;;;;;;;;;5047725;28;20158;-73
2022/06/05 07:33:32;;;;;;;9.70;8.75;;;;;;;;;;5046064;28;20060;-73
2022/06/05 07:35:58;;;;;;;20.80;11.30;;;;;;;;;;5048185;28;20040;-74
2022/06/05 07:38:24;;;;;;;13.43;10.02;;;;;;;;;;5046626;28;20051;-75
2022/06/05 07:40:49;;;;;;;10.40;9.18;;;;;;;;;;5043490;28;20028;-73
2022/06/05 07:43:15;;;;;;;10.75;9.73;;;;;;;;;;5047485;28;20390;-74
2022/06/05 07:45:43;;;;;;;10.98;9.98;;;;;;;;;;5047679;28;20033;-74
2022/06/05 07:48:09;;;;;;;10.57;8.68;;;;;;;;;;5046195;28;20025;-74
2022/06/05 07:50:34;;;;;;;9.77;8.88;;;;;;;;;;5060281;28;20494;-73
2022/06/05 07:55:43;;;;;;;10.60;8.52;;;;;;;;;;5046248;28;20447;-75
2022/06/05 07:58:09;;;;;;;10.32;9.40;;;;;;;;;;5046978;28;20029;-75
2022/06/05 08:00:34;;;;;;;8.38;7.68;;;;;;;;;;5043211;28;20021;-75
2022/06/05 08:02:59;;;;;;;7.70;6.88;;;;;;;;;;5046534;28;20036;-76
2022/06/05 08:05:25;;;;;;;8.23;7.00;;;;;;;;;;5046158;28;20394;-75
2022/06/05 08:07:50;;;;;;;7.93;7.10;;;;;;;;;;5046567;28;20025;-75
2022/06/05 08:10:15;;;;;;;6.60;6.00;;;;;;;;;;5050134;28;20548;-76
2022/06/05 08:12:41;;;;;;;7.03;6.32;;;;;;;;;;5043162;28;20737;-74
2022/06/05 08:15:13;;;;;;;7.07;6.47;;;;;;;;;;5047583;28;20039;-76
2022/06/05 08:17:39;;;;;;;7.15;6.55;;;;;;;;;;5048318;28;20072;-76
2022/06/05 08:20:06;;;;;;;5.75;5.18;;;;;;;;;;5049836;28;20025;-76
2022/06/05 08:22:32;;;;;;;5.32;4.85;;;;;;;;;;5050039;28;20587;-76
2022/06/05 08:24:57;;;;;;;4.90;4.50;;;;;;;;;;5049942;28;20506;-76
2022/06/05 08:27:25;;;;;;;5.63;4.63;;;;;;;;;;5049092;28;20287;-75
2022/06/05 08:29:55;;;;;;;7.43;5.10;;;;;;;;;;5049921;28;20056;-77
2022/06/05 08:32:22;;;;;;;6.18;5.03;;;;;;;;;;5050308;28;20490;-77
2022/06/05 08:34:47;;;;;;;5.35;4.80;;;;;;;;;;5049204;28;20029;-76
2022/06/05 08:42:58;;;;;;;5.85;5.35;;;;;;;;;;5051684;28;20023;-78
2022/06/05 08:45:41;;;;;;;5.70;4.63;;;;;;;;;;5051206;28;20036;-74
2022/06/05 08:48:13;;;;;;;4.80;4.30;;;;;;;;;;5050576;28;20108;-76
2022/06/05 08:50:45;;;;;;;4.45;4.07;;;;;;;;;;5049560;28;20056;-76
2022/06/05 08:53:26;;;;;;;4.43;4.03;;;;;;;;;;5051088;28;20035;-76
2022/06/05 08:55:54;;;;;;;4.18;3.72;;;;;;;;;;5050449;28;20025;-79
2022/06/05 08:58:28;;;;;;;3.70;3.40;;;;;;;;;;5052511;28;20037;-79
2022/06/05 09:01:00;;;;;;;4.18;3.78;;;;;;;;;;5055614;28;20029;-78
2022/06/05 09:03:31;;;;;;;4.50;4.10;;;;;;;;;;5053088;28;20024;-77
2022/06/05 09:06:11;;;;;;;4.55;4.15;;;;;;;;;;5047954;28;20033;-75
2022/06/05 09:08:40;;;;;;;6.00;5.40;;;;;;;;;;5052452;28;20108;-76
2022/06/05 09:11:28;;;;;;;7.00;5.50;;;;;;;;;;5050861;28;20088;-77
2022/06/05 09:14:11;;;;;;;5.85;4.88;;;;;;;;;;5051573;28;20020;-76
2022/06/05 09:16:53;;;;;;;4.85;4.45;;;;;;;;;;5051001;28;20055;-76
2022/06/05 09:19:24;;;;;;;6.70;5.25;;;;;;;;;;5049944;28;20588;-77
2022/06/05 09:22:03;;;;;;;5.88;5.28;;;;;;;;;;5050679;28;20025;-76
2022/06/05 09:24:48;;;;;;;7.43;5.88;;;;;;;;;;5048365;28;20033;-76
2022/06/05 09:27:19;;;;;;;5.82;5.10;;;;;;;;;;5049158;28;20426;-75
2022/06/05 09:29:50;;;;;;;6.60;4.80;;;;;;;;;;5049333;28;20490;-76
2022/06/05 09:32:39;;;;;;;5.60;5.10;;;;;;;;;;5048928;28;20280;-74
2022/06/05 09:35:16;;;;;;;5.05;4.65;;;;;;;;;;5049774;28;20028;-77
2022/06/05 09:38:02;;;;;;;5.57;4.80;;;;;;;;;;5047256;28;20039;-75
2022/06/05 09:40:34;;;;;;;4.90;4.50;;;;;;;;;;5049482;28;20538;-74
2022/06/05 09:43:32;;;;;;;5.10;4.60;;;;;;;;;;5050325;28;20170;-75
2022/06/05 09:46:30;;;;;;;5.10;4.60;;;;;;;;;;5047195;28;20040;-76
2022/06/05 09:49:11;;;;;;;4.88;4.45;;;;;;;;;;5045348;28;20028;-75
2022/06/05 09:51:40;;;;;;;8.23;4.15;;;;;;;;;;5040225;28;20017;-75
2022/06/05 09:54:20;;;;;;;4.68;3.65;;;;;;;;;;5046614;28;20478;-76
2022/06/05 09:59:49;;;;;;;4.30;4.00;;;;;;;;;;5036261;28;20035;-77
2022/06/05 10:02:15;;;;;;;4.60;4.20;;;;;;;;;;5045854;28;20028;-74
2022/06/05 10:04:41;;;;;;;6.00;4.10;;;;;;;;;;5044714;28;20037;-76
2022/06/05 10:07:24;;;;;;;4.53;3.92;;;;;;;;;;5043135;28;20074;-74
2022/06/05 10:09:50;;;;;;;4.03;3.63;;;;;;;;;;5046255;28;20095;-74
2022/06/05 10:12:23;;;;;;;3.85;3.55;;;;;;;;;;5045888;28;20116;-74
2022/06/05 10:14:59;;;;;;;6.57;4.30;;;;;;;;;;5045684;28;20029;-76
2022/06/05 10:17:30;;;;;;;4.30;3.90;;;;;;;;;;5045687;28;20060;-74
2022/06/05 10:20:04;;;;;;;5.10;4.70;;;;;;;;;;5044290;28;20032;-74
2022/06/05 10:23:11;;;;;;;4.10;3.78;;;;;;;;;;5044345;28;20037;-74
2022/06/05 10:25:55;;;;;;;4.10;3.70;;;;;;;;;;5034825;28;20041;-74
2022/06/05 10:28:22;;;;;;;3.40;3.03;;;;;;;;;;5045091;28;20040;-74
2022/06/05 10:30:56;;;;;;;3.45;2.00;;;;;;;;;;5045259;28;20036;-75
2022/06/05 10:33:28;;;;;;;2.83;2.20;;;;;;;;;;5045498;28;20040;-74
2022/06/05 10:36:20;;;;;;;3.97;1.83;;;;;;;;;;5046206;28;20021;-74
2022/06/05 10:39:01;;;;;;;2.33;1.80;;;;;;;;;;5043004;28;20025;-74
2022/06/05 10:41:30;;;;;;;3.55;2.00;;;;;;;;;;5043632;28;20498;-74
2022/06/05 10:44:29;;;;;;;3.58;1.98;;;;;;;;;;5046969;28;20090;-75
2022/06/05 10:47:04;;;;;;;2.38;1.80;;;;;;;;;;5040586;28;20040;-75
2022/06/05 10:49:46;;;;;;;3.17;1.90;;;;;;;;;;5045001;28;20029;-74
2022/06/05 10:52:26;;;;;;;3.85;1.95;;;;;;;;;;5042490;28;20120;-75
2022/06/05 10:55:34;;;;;;;2.60;1.67;;;;;;;;;;5040206;28;20025;-76
2022/06/05 10:58:05;;;;;;;2.55;1.75;;;;;;;;;;5008430;28;20048;-74
2022/06/05 11:01:11;;;;;;;4.27;1.93;;;;;;;;;;5060541;28;20509;-76
2022/06/05 11:04:11;;;;;;;3.88;1.52;;;;;;;;;;5014652;28;20297;-74
2022/06/05 11:07:10;;;;;;;3.85;1.88;;;;;;;;;;5032245;28;20076;-75
2022/06/05 11:10:04;;;;;;;6.05;2.15;;;;;;;;;;5048031;28;20017;-73
2022/06/05 11:15:53;;;;;;;2.47;2.10;;;;;;;;;;5043761;28;20044;-74
2022/06/05 11:18:26;;;;;;;3.63;2.65;;;;;;;;;;5047246;28;20025;-75
2022/06/05 11:20:58;;;;;;;4.60;2.72;;;;;;;;;;5048083;28;20483;-74
2022/06/05 11:23:29;;;;;;;3.85;3.50;;;;;;;;;;5048051;28;20029;-76
2022/06/05 11:26:04;;;;;;;5.53;3.90;;;;;;;;;;5048252;28;20113;-76
2022/06/05 11:28:47;;;;;;;4.95;3.70;;;;;;;;;;5048358;28;20163;-75
2022/06/05 11:31:15;;;;;;;4.15;3.30;;;;;;;;;;5045803;28;20047;-75
2022/06/05 11:34:01;;;;;;;4.15;3.60;;;;;;;;;;5045708;28;20032;-74
2022/06/05 11:36:30;;;;;;;3.03;2.72;;;;;;;;;;5047911;28;20498;-75
2022/06/05 11:39:30;;;;;;;4.20;3.20;;;;;;;;;;5027713;28;20116;-72
2022/06/05 11:41:58;;;;;;;3.13;2.50;;;;;;;;;;5028000;28;20029;-74
2022/06/05 11:44:38;;;;;;;3.42;2.58;;;;;;;;;;5036395;28;20064;-73
2022/06/05 11:47:10;;;;;;;4.95;2.30;;;;;;;;;;5037640;28;20543;-74
2022/06/05 11:50:09;;;;;;;4.53;2.55;;;;;;;;;;5044826;28;20509;-75
2022/06/05 11:52:43;;;;;;;2.70;2.50;;;;;;;;;;5051327;28;20025;-74
2022/06/05 11:55:42;;;;;;;3.17;2.83;;;;;;;;;;5050712;28;20063;-74
2022/06/05 11:58:15;;;;;;;9.20;3.13;;;;;;;;;;5037595;28;20494;-74
2022/06/05 12:00:47;;;;;;;4.65;3.50;;;;;;;;;;5049953;28;20163;-78
2022/06/05 12:03:23;;;;;;;;;;;;;;;;;;5051316;28;20021;-76
2022/06/05 12:05:58;;;;;;;4.13;2.40;;;;;;;;;;5051902;28;19913;-74
2022/06/05 12:08:28;;;;;;;1.15;1.05;;;;;;;;;;5052252;28;20048;-77
2022/06/05 12:11:17;;;;;;;3.38;2.08;;;;;;;;;;5052661;28;20025;-75
2022/06/05 12:13:54;;;;;;;2.25;1.50;;;;;;;;;;5052654;28;20106;-79
2022/06/05 12:16:53;;;;;;;1.45;1.35;;;;;;;;;;5045963;28;20067;-77
2022/06/05 12:19:53;;;;;;;3.78;2.35;;;;;;;;;;5032529;28;20033;-78
2022/06/05 12:22:43;;;;;;;3.80;1.98;;;;;;;;;;5006526;28;20041;-74
2022/06/05 12:25:31;;;;;;;4.55;1.42;;;;;;;;;;5031776;28;20033;-79
2022/06/05 12:28:15;;;;;;;1.92;1.40;;;;;;;;;;5035752;28;20029;-77
2022/06/05 12:30:49;;;;;;;2.10;1.40;;;;;;;;;;5051991;28;20061;-77
2022/06/05 12:33:16;;;;;;;3.72;1.58;;;;;;;;;;5049412;28;20098;-77
2022/06/05 12:35:46;;;;;;;1.80;1.50;;;;;;;;;;5053324;28;20036;-78
2022/06/05 12:38:31;;;;;;;2.88;1.35;;;;;;;;;;5051841;28;20033;-76
2022/06/05 12:41:15;;;;;;;2.13;1.02;;;;;;;;;;5050384;28;20028;-77
2022/06/05 12:44:08;;;;;;;1.83;1.33;;;;;;;;;;5051393;28;20091;-76
2022/06/05 12:46:40;;;;;;;2.60;1.02;;;;;;;;;;5049415;28;20037;-75
2022/06/05 12:49:23;;;;;;;1.65;1.17;;;;;;;;;;5044476;28;20036;-77
2022/06/05 12:51:59;;;;;;;1.70;1.35;;;;;;;;;;5049839;28;20116;-77
2022/06/05 12:54:34;;;;;;;2.55;1.20;;;;;;;;;;5050976;28;20048;-76
2022/06/05 12:57:08;;;;;;;2.65;1.10;;;;;;;;;;5051338;28;20029;-77
2022/06/05 12:59:48;;;;;;;2.05;1.00;;;;;;;;;;5048979;28;20039;-74
2022/06/05 13:02:43;;;;;;;2.75;1.20;;;;;;;;;;5050697;28;20029;-75
2022/06/05 13:05:38;;;;;;;2.45;1.10;;;;;;;;;;5042042;28;20045;-77
2022/06/05 13:08:09;;;;;;;1.08;0.98;;;;;;;;;;5051142;28;20056;-77
2022/06/05 13:10:53;;;;;;;1.92;1.33;;;;;;;;;;5051596;28;20072;-75
2022/06/05 13:13:40;;;;;;;1.95;1.33;;;;;;;;;;5051026;28;20048;-76
2022/06/05 13:16:14;;;;;;;1.60;1.30;;;;;;;;;;5074108;22;20060;-76
2022/06/05 13:18:53;;;;;;;2.38;1.40;;;;;;;;;;5030138;28;20079;-74
2022/06/05 13:21:27;;;;;;;1.40;1.30;;;;;;;;;;5030831;28;20021;-75
2022/06/05 13:24:10;;;;;;;1.33;1.23;;;;;;;;;;5029192;28;20029;-75
2022/06/05 13:27:01;;;;;;;1.88;1.30;;;;;;;;;;5010188;28;20029;-71
2022/06/05 13:29:42;;;;;;;1.80;1.40;;;;;;;;;;5010085;28;20030;-77
2022/06/05 13:32:22;;;;;;;1.65;1.40;;;;;;;;;;5010550;28;20119;-74
2022/06/05 13:34:52;;;;;;;1.25;1.15;;;;;;;;;;5009543;28;20125;-76
2022/06/05 13:37:59;;;;;;;1.85;1.58;;;;;;;;;;5009123;28;20034;-77
2022/06/05 13:40:34;;;;;;;3.60;1.60;;;;;;;;;;4986184;28;20455;-76
2022/06/05 13:43:01;;;;;;;2.63;1.40;;;;;;;;;;5008327;28;20053;-75
2022/06/05 13:45:50;;;;;;;1.58;1.40;;;;;;;;;;5008796;28;20072;-73
2022/06/05 13:48:21;;;;;;;2.53;1.58;;;;;;;;;;5007088;28;20399;-77
2022/06/05 13:50:59;;;;;;;5.10;1.50;;;;;;;;;;5010473;28;20365;-73
2022/06/05 13:53:32;;;;;;;2.88;1.50;;;;;;;;;;5008663;28;20479;-77
2022/06/05 13:56:12;;;;;;;3.25;1.55;;;;;;;;;;5008905;28;20105;-72
2022/06/05 13:59:01;;;;;;;2.63;1.60;;;;;;;;;;5009845;28;20026;-76
2022/06/05 14:01:36;;;;;;;2.03;1.52;;;;;;;;;;5010818;28;20381;-76
2022/06/05 14:04:21;;;;;;;4.95;1.58;;;;;;;;;;5010004;28;20021;-75
2022/06/05 14:06:49;;;;;;;3.03;1.58;;;;;;;;;;5010088;28;20030;-71
2022/06/05 14:09:43;;;;;;;2.42;1.52;;;;;;;;;;5008733;28;20038;-72
2022/06/05 14:12:19;;;;;;;2.15;1.75;;;;;;;;;;5004095;28;20042;-73
2022/06/05 14:14:45;;;;;;;3.10;1.50;;;;;;;;;;5008266;28;20048;-74
2022/06/05 14:17:33;;;;;;;1.73;1.60;;;;;;;;;;5010067;28;20034;-74
2022/06/05 14:20:05;;;;;;;1.83;1.70;;;;;;;;;;5011674;28;20057;-76
2022/06/05 14:22:33;;;;;;;1.67;1.35;;;;;;;;;;5006068;28;20065;-76
2022/06/05 14:25:00;;;;;;;1.45;1.30;;;;;;;;;;5007137;28;20045;-74
2022/06/05 14:27:29;;;;;;;2.55;1.45;;;;;;;;;;5009687;28;20029;-76
2022/06/05 14:29:56;;;;;;;2.13;1.42;;;;;;;;;;4988431;28;20357;-75
2022/06/05 14:32:28;;;;;;;2.28;1.50;;;;;;;;;;4988693;28;20377;-75
2022/06/05 14:35:15;;;;;;;1.52;1.27;;;;;;;;;;5004074;28;20026;-73
2022/06/05 14:37:58;;;;;;;2.97;1.50;;;;;;;;;;4999393;28;20030;-72
2022/06/05 14:40:30;;;;;;;1.80;1.67;;;;;;;;;;5006631;28;20030;-77
2022/06/05 14:43:03;;;;;;;4.72;2.05;;;;;;;;;;4997257;28;20038;-74
2022/06/05 14:45:38;;;;;;;6.78;2.00;;;;;;;;;;4997026;28;20066;-72
2022/06/05 14:48:32;;;;;;;1.63;1.50;;;;;;;;;;5008420;28;20045;-72
2022/06/05 14:51:10;;;;;;;2.47;1.48;;;;;;;;;;5003979;28;20037;-70
2022/06/05 14:53:56;;;;;;;2.65;1.40;;;;;;;;;;5005505;28;20399;-76
2022/06/05 14:59:21;;;;;;;2.95;1.83;;;;;;;;;;5006962;28;20040;-78
2022/06/05 15:02:08;;;;;;;3.90;1.90;;;;;;;;;;5008639;28;20029;-78
2022/06/05 15:04:54;;;;;;;3.03;1.88;;;;;;;;;;5008999;28;20395;-78
2022/06/05 15:07:28;;;;;;;2.42;1.63;;;;;;;;;;5005974;28;20166;-77
2022/06/05 15:09:58;;;;;;;2.72;1.33;;;;;;;;;;4998912;28;20025;-77
2022/06/05 15:12:32;;;;;;;4.43;1.65;;;;;;;;;;5008381;28;20160;-75
2022/06/05 15:15:02;;;;;;;4.40;2.33;;;;;;;;;;5000236;28;20057;-75
2022/06/05 15:17:37;;;;;;;3.58;1.45;;;;;;;;;;5009102;28;20028;-77
2022/06/05 15:20:05;;;;;;;2.47;1.45;;;;;;;;;;5006733;28;20379;-75
2022/06/05 15:23:00;;;;;;;1.65;1.30;;;;;;;;;;5007346;28;20073;-78
2022/06/05 15:25:47;;;;;;;3.08;1.88;;;;;;;;;;5003178;28;20034;-79
2022/06/05 15:28:18;;;;;;;5.45;2.85;;;;;;;;;;5003623;28;20030;-77
2022/06/05 15:30:57;;;;;;;2.50;1.50;;;;;;;;;;5007816;28;20034;-76
2022/06/05 15:33:40;;;;;;;3.33;1.55;;;;;;;;;;5005071;28;20032;-77
2022/06/05 15:36:15;;;;;;;3.05;1.30;;;;;;;;;;5000959;28;20022;-74
2022/06/05 15:38:50;;;;;;;1.20;1.10;;;;;;;;;;5008042;28;20372;-74
2022/06/05 15:41:48;;;;;;;1.60;1.17;;;;;;;;;;5005907;28;20034;-75
2022/06/05 15:44:51;;;;;;;1.58;0.90;;;;;;;;;;4986672;28;20058;-75